Time;durP1;ratioP1;P1;durP2;ratioP2;P2;SDS_P1;SDS_P2;PMS_P1;PMS_P2;Temp;Humidity;BMP_temperature;BMP_pressure;BME280_temperature;BME280_humidity;BME280_pressure;Samples;Min_cycle;Max_cycle;Signal;HPM_P1;HPM_P2
2023/07/27 00:01:19;;;;;;;6.82;5.70;;;;;;;22.35;69.17;94238.00;5033053;28;20192;-81
2023/07/27 00:03:44;;;;;;;10.83;6.17;;;;;;;22.34;69.31;94240.97;5014285;28;20915;-81
2023/07/27 00:06:10;;;;;;;7.30;6.03;;;;;;;22.30;69.34;94240.00;5029907;28;20429;-81
2023/07/27 00:08:35;;;;;;;10.97;6.20;;;;;;;22.24;69.47;94235.78;5013916;28;20419;-80
2023/07/27 00:11:00;;;;;;;7.03;5.33;;;;;;;21.89;68.93;94213.91;5031553;28;20419;-81
2023/07/27 00:13:26;;;;;;;5.30;4.80;;;;;;;21.99;67.47;94245.94;5031502;28;20409;-81
2023/07/27 00:15:51;;;;;;;6.18;3.97;;;;;;;21.88;66.37;94236.44;5030750;28;20464;-81
2023/07/27 00:18:17;;;;;;;9.00;3.97;;;;;;;21.80;65.20;94237.94;5013626;28;20928;-81
2023/07/27 00:20:42;;;;;;;4.38;3.05;;;;;;;21.76;65.67;94233.47;5030375;28;20429;-81
2023/07/27 00:23:07;;;;;;;3.33;3.03;;;;;;;21.64;65.74;94220.53;5031205;28;20409;-81
2023/07/27 00:25:33;;;;;;;4.47;3.00;;;;;;;21.66;65.28;94225.59;5032100;28;20240;-81
2023/07/27 00:27:58;;;;;;;4.10;2.80;;;;;;;21.69;65.84;94233.88;5030760;28;20621;-81
2023/07/27 00:30:24;;;;;;;5.10;2.97;;;;;;;21.51;66.10;94199.09;5030940;28;20419;-81
2023/07/27 00:32:49;;;;;;;5.40;3.15;;;;;;;21.60;65.68;94219.56;5031736;28;20421;-81
2023/07/27 00:35:15;;;;;;;3.55;3.13;;;;;;;21.40;66.60;94218.00;5031564;28;20487;-81
2023/07/27 00:37:41;;;;;;;4.05;3.00;;;;;;;21.24;66.56;94214.00;5014056;28;20187;-81
2023/07/27 00:40:07;;;;;;;6.10;2.92;;;;;;;20.98;67.11;94200.19;5031978;28;20334;-81
2023/07/27 00:42:32;;;;;;;3.67;3.10;;;;;;;20.85;68.50;94229.56;5030536;28;20495;-81
2023/07/27 00:44:57;;;;;;;3.75;3.28;;;;;;;20.67;68.75;94194.50;5031680;28;20568;-81
2023/07/27 00:47:23;;;;;;;3.85;3.00;;;;;;;20.88;68.59;94219.09;5024694;28;20183;-81
2023/07/27 00:49:49;;;;;;;7.00;3.53;;;;;;;21.03;67.89;94232.22;5031534;28;21110;-81
2023/07/27 00:52:15;;;;;;;6.10;2.97;;;;;;;21.02;67.99;94224.47;5031583;28;20842;-80
2023/07/27 00:54:40;;;;;;;5.30;3.30;;;;;;;20.86;67.84;94191.00;5031608;28;20486;-80
2023/07/27 00:57:07;;;;;;;3.45;2.78;;;;;;;21.00;67.63;94226.69;5031020;28;20530;-80
2023/07/27 00:59:33;;;;;;;2.90;2.33;;;;;;;21.01;66.66;94237.09;5031507;28;20250;-81
2023/07/27 01:01:59;;;;;;;2.97;2.50;;;;;;;21.00;66.69;94234.72;5031657;28;20691;-81
2023/07/27 01:04:25;;;;;;;3.35;2.53;;;;;;;21.02;66.68;94235.19;5031167;28;20496;-80
2023/07/27 01:06:50;;;;;;;2.33;2.13;;;;;;;21.04;66.15;94235.69;5031707;28;20568;-81
2023/07/27 01:09:16;;;;;;;2.40;2.20;;;;;;;21.03;66.03;94234.91;5031275;28;20421;-80
2023/07/27 01:12:14;;;;;;;4.57;2.25;;;;;;;20.80;65.83;94202.88;5034462;28;20453;-81
2023/07/27 01:14:42;;;;;;;3.92;2.20;;;;;;;20.89;65.83;94230.59;5033344;28;20463;-82
2023/07/27 01:17:21;;;;;;;3.45;2.83;;;;;;;20.51;66.42;94179.75;5035256;28;20347;-81
2023/07/27 01:19:59;;;;;;;5.13;2.92;;;;;;;20.86;66.83;94239.97;5023337;28;20939;-81
2023/07/27 01:22:30;;;;;;;3.25;2.60;;;;;;;20.92;66.45;94240.72;5030422;28;20417;-81
2023/07/27 01:25:23;;;;;;;2.70;2.45;;;;;;;20.96;65.69;94242.50;5035436;28;20180;-82
2023/07/27 01:28:24;;;;;;;3.53;2.05;;;;;;;20.94;65.52;94230.50;5030907;28;20417;-82
2023/07/27 01:30:57;;;;;;;3.30;1.73;;;;;;;20.74;65.37;94241.50;5027711;28;20836;-82
2023/07/27 01:33:35;;;;;;;2.75;2.08;;;;;;;20.60;65.80;94236.84;5035108;28;20627;-81
2023/07/27 01:36:08;;;;;;;4.07;2.20;;;;;;;20.71;65.45;94249.03;5014101;28;20482;-81
2023/07/27 01:38:37;;;;;;;2.17;1.98;;;;;;;20.73;65.62;94251.41;5017461;28;20623;-78
2023/07/27 01:41:05;;;;;;;2.50;2.00;;;;;;;20.78;65.13;94248.66;5033846;28;20996;-78
2023/07/27 01:43:31;;;;;;;5.35;2.10;;;;;;;20.56;65.88;94243.88;5033447;28;20431;-78
2023/07/27 01:45:59;;;;;;;2.95;2.05;;;;;;;20.40;66.63;94247.03;5033749;28;20975;-78
2023/07/27 01:48:26;;;;;;;4.35;2.60;;;;;;;20.30;66.96;94251.41;5033506;28;20413;-78
2023/07/27 01:50:54;;;;;;;2.40;2.13;;;;;;;20.21;67.41;94252.31;5033661;28;20435;-78
2023/07/27 01:53:21;;;;;;;3.63;2.55;;;;;;;20.08;67.98;94247.63;5034026;28;20415;-78
2023/07/27 01:55:47;;;;;;;3.17;2.30;;;;;;;20.21;68.22;94258.47;5033345;28;20431;-78
2023/07/27 01:58:15;;;;;;;2.63;2.17;;;;;;;20.11;67.68;94234.50;5034598;28;20172;-78
2023/07/27 02:00:42;;;;;;;2.45;2.15;;;;;;;20.05;67.88;94256.25;5034445;28;20476;-78
2023/07/27 02:03:09;;;;;;;4.95;2.80;;;;;;;20.08;69.03;94261.81;5032822;28;20417;-77
2023/07/27 02:05:34;;;;;;;3.75;2.60;;;;;;;20.18;68.85;94268.91;5033563;28;20962;-78
2023/07/27 02:08:00;;;;;;;4.65;2.60;;;;;;;20.35;68.01;94277.28;5033903;28;20278;-78
2023/07/27 02:10:27;;;;;;;3.73;2.73;;;;;;;20.31;67.78;94268.25;5032043;28;20931;-78
2023/07/27 02:13:04;;;;;;;3.28;2.97;;;;;;;20.52;67.72;94279.50;5028746;28;20176;-78
2023/07/27 02:15:39;;;;;;;3.55;3.08;;;;;;;20.62;67.02;94282.06;5032930;28;20904;-78
2023/07/27 02:18:21;;;;;;;4.65;3.10;;;;;;;20.45;67.37;94282.53;5030044;28;21055;-78
2023/07/27 02:20:49;;;;;;;5.55;3.63;;;;;;;20.52;67.93;94304.38;5029950;28;20190;-78
2023/07/27 02:23:15;;;;;;;3.80;3.40;;;;;;;20.30;67.90;94307.53;5032714;28;20417;-78
2023/07/27 02:25:41;;;;;;;5.18;3.80;;;;;;;20.20;68.19;94309.53;5033675;28;20420;-78
2023/07/27 02:28:10;;;;;;;5.43;4.13;;;;;;;20.07;68.79;94286.94;5032581;28;20412;-78
2023/07/27 02:30:36;;;;;;;4.15;3.80;;;;;;;20.06;68.32;94284.56;5032744;28;20662;-78
2023/07/27 02:33:02;;;;;;;4.75;4.35;;;;;;;20.15;68.43;94306.91;5032333;28;20436;-78
2023/07/27 02:35:27;;;;;;;6.50;4.80;;;;;;;20.19;68.74;94310.59;5032295;28;20495;-78
2023/07/27 02:37:52;;;;;;;4.90;4.20;;;;;;;20.28;68.28;94312.38;5033716;28;20774;-78
2023/07/27 02:40:18;;;;;;;4.67;4.27;;;;;;;20.26;67.49;94306.50;5033601;28;20440;-78
2023/07/27 02:42:43;;;;;;;4.90;4.50;;;;;;;20.26;67.78;94306.50;5033005;28;20904;-78
2023/07/27 02:45:09;;;;;;;4.80;4.40;;;;;;;20.27;67.31;94318.78;5033997;28;20175;-78
2023/07/27 02:47:34;;;;;;;5.07;4.57;;;;;;;20.36;67.30;94329.69;5032049;28;20413;-78
2023/07/27 02:50:00;;;;;;;5.10;4.60;;;;;;;20.24;67.22;94337.28;5032433;28;20939;-80
2023/07/27 02:52:25;;;;;;;5.68;4.50;;;;;;;20.13;66.64;94317.09;5033015;28;20427;-80
2023/07/27 02:54:50;;;;;;;5.95;4.10;;;;;;;20.23;66.61;94333.03;5033937;28;20654;-79
2023/07/27 02:57:16;;;;;;;5.23;4.13;;;;;;;20.36;65.99;94345.75;5032091;28;20417;-79
2023/07/27 02:59:41;;;;;;;6.87;4.40;;;;;;;20.10;65.90;94326.47;5032881;28;20445;-80
2023/07/27 03:02:07;;;;;;;6.78;4.75;;;;;;;20.12;65.63;94352.91;5032715;28;20696;-80
2023/07/27 03:04:32;;;;;;;4.43;4.00;;;;;;;20.00;66.37;94361.28;5015511;28;20413;-80
2023/07/27 03:06:57;;;;;;;5.10;4.60;;;;;;;19.78;66.24;94343.06;5032783;28;20919;-80
2023/07/27 03:09:23;;;;;;;6.37;4.40;;;;;;;19.77;66.41;94340.69;5032682;28;20499;-80
2023/07/27 03:11:49;;;;;;;5.97;4.70;;;;;;;19.79;66.40;94366.03;5031325;28;20427;-80
2023/07/27 03:14:15;;;;;;;5.10;4.27;;;;;;;19.89;66.26;94367.84;5031693;28;20802;-80
2023/07/27 03:16:40;;;;;;;6.82;4.78;;;;;;;19.73;66.64;94366.34;5032335;28;20421;-80
2023/07/27 03:19:06;;;;;;;6.67;4.67;;;;;;;19.44;66.26;94359.06;5033017;28;20851;-79
2023/07/27 03:21:31;;;;;;;7.20;4.63;;;;;;;19.46;66.74;94369.47;5032314;28;20448;-80
2023/07/27 03:23:57;;;;;;;5.40;4.90;;;;;;;19.21;66.56;94368.53;5032191;28;20417;-82
2023/07/27 03:26:22;;;;;;;4.60;4.20;;;;;;;19.29;66.63;94372.50;5032327;28;20507;-80
2023/07/27 03:28:47;;;;;;;5.03;4.53;;;;;;;19.34;65.91;94375.16;5032249;28;20431;-80
2023/07/27 03:31:18;;;;;;;6.23;4.73;;;;;;;19.03;66.65;94369.19;5032681;28;20483;-81
2023/07/27 03:33:44;;;;;;;6.75;4.10;;;;;;;18.99;66.22;94348.66;5031730;28;20423;-81
2023/07/27 03:36:09;;;;;;;4.87;3.90;;;;;;;19.26;65.31;94377.59;5014211;28;20421;-80
2023/07/27 03:38:35;;;;;;;5.32;4.25;;;;;;;19.03;65.40;94347.84;5032622;28;20171;-81
2023/07/27 03:41:01;;;;;;;5.63;5.13;;;;;;;18.86;65.62;94352.72;5031590;28;20436;-80
2023/07/27 03:43:26;;;;;;;5.55;4.35;;;;;;;18.83;65.67;94396.75;5031617;28;20423;-80
2023/07/27 03:45:55;;;;;;;4.90;4.40;;;;;;;18.92;65.77;94393.53;5031913;28;20435;-82
2023/07/27 03:48:20;;;;;;;19.17;6.37;;;;;;;19.08;64.67;94387.03;5032881;28;20316;-82
2023/07/27 03:50:46;;;;;;;4.87;4.40;;;;;;;18.93;64.81;94387.94;5031824;28;20412;-82
2023/07/27 03:53:11;;;;;;;9.98;7.60;;;;;;;19.12;65.28;94398.75;5032394;28;20198;-81
2023/07/27 03:55:37;;;;;;;5.95;4.00;;;;;;;19.42;64.60;94411.94;5032545;28;20182;-82
2023/07/27 03:58:02;;;;;;;4.10;3.70;;;;;;;19.38;64.12;94416.22;5032493;28;20776;-82
2023/07/27 04:00:28;;;;;;;8.35;3.67;;;;;;;19.42;63.97;94401.25;5033011;28;20286;-82
2023/07/27 04:02:53;;;;;;;7.05;3.22;;;;;;;19.54;62.43;94411.63;5031578;28;20654;-81
2023/07/27 04:05:18;;;;;;;4.88;3.67;;;;;;;19.72;62.15;94421.63;5032741;28;20617;-82
2023/07/27 04:07:44;;;;;;;3.20;2.60;;;;;;;19.55;60.64;94426.56;5032746;28;20637;-81
2023/07/27 04:10:09;;;;;;;3.80;3.28;;;;;;;19.50;61.63;94402.56;5032726;28;20216;-83
2023/07/27 04:12:35;;;;;;;11.82;2.88;;;;;;;19.74;60.73;94437.38;5033148;28;20179;-82
2023/07/27 04:15:00;;;;;;;3.25;2.95;;;;;;;19.74;60.66;94434.72;5029992;28;20230;-82
2023/07/27 04:17:25;;;;;;;5.75;3.20;;;;;;;19.93;59.37;94451.69;5032071;28;20168;-82
2023/07/27 04:19:51;;;;;;;5.03;2.60;;;;;;;19.99;59.24;94466.59;5032022;28;20609;-82
2023/07/27 04:22:16;;;;;;;4.70;2.35;;;;;;;19.92;57.67;94450.88;5031991;28;20171;-82
2023/07/27 04:24:44;;;;;;;4.27;2.17;;;;;;;19.76;58.33;94441.38;5031314;28;20409;-82
2023/07/27 04:27:11;;;;;;;5.38;2.72;;;;;;;19.67;59.21;94427.03;5032936;28;20222;-83
2023/07/27 04:29:36;;;;;;;4.18;2.50;;;;;;;19.62;58.22;94472.47;5031260;28;20485;-81
2023/07/27 04:32:02;;;;;;;7.28;2.30;;;;;;;19.68;57.38;94476.69;5032118;28;20176;-78
2023/07/27 04:34:27;;;;;;;7.07;2.55;;;;;;;19.82;57.59;94490.22;5031531;28;20571;-78
2023/07/27 04:36:52;;;;;;;3.50;2.50;;;;;;;19.81;57.81;94494.75;5031458;28;20559;-81
2023/07/27 04:39:18;;;;;;;1.83;1.73;;;;;;;19.63;57.40;94500.78;5031584;28;20534;-81
2023/07/27 04:41:43;;;;;;;2.70;2.03;;;;;;;19.56;57.29;94497.59;5031605;28;20572;-81
2023/07/27 04:44:09;;;;;;;3.93;2.30;;;;;;;19.43;58.23;94503.50;5013569;28;20802;-81
2023/07/27 04:46:34;;;;;;;2.90;2.28;;;;;;;19.42;58.29;94509.91;5030740;28;20464;-80
2023/07/27 04:49:01;;;;;;;3.95;2.10;;;;;;;19.37;57.90;94496.59;5031775;28;20850;-81
2023/07/27 04:51:26;;;;;;;3.45;2.75;;;;;;;19.52;59.13;94504.56;5031903;28;20259;-80
2023/07/27 04:53:51;;;;;;;8.27;4.35;;;;;;;19.50;58.59;94506.69;5031465;28;20250;-81
2023/07/27 04:56:17;;;;;;;4.20;2.40;;;;;;;19.53;58.53;94506.97;5029901;28;20183;-81
2023/07/27 04:58:43;;;;;;;5.35;2.20;;;;;;;19.22;57.10;94487.56;5031216;28;20425;-81
2023/07/27 05:01:08;;;;;;;4.65;2.67;;;;;;;19.26;58.33;94479.03;5018380;28;20223;-81
2023/07/27 05:03:33;;;;;;;2.40;2.20;;;;;;;19.51;58.33;94508.31;5012810;28;20963;-81
2023/07/27 05:05:59;;;;;;;3.75;2.35;;;;;;;19.61;57.28;94513.59;5012518;28;20180;-81
2023/07/27 05:08:24;;;;;;;5.70;2.95;;;;;;;19.53;57.18;94493.63;5026535;28;20645;-81
2023/07/27 05:10:50;;;;;;;5.65;4.05;;;;;;;19.66;57.42;94524.25;5030633;28;20234;-81
2023/07/27 05:13:15;;;;;;;2.70;2.47;;;;;;;19.57;56.82;94515.22;5031370;28;20187;-81
2023/07/27 05:15:41;;;;;;;5.28;3.30;;;;;;;;;;5031366;28;20714;-81
2023/07/27 05:18:07;;;;;;;7.53;5.13;;;;;;;19.43;57.88;94517.66;5031888;28;20162;-82
2023/07/27 05:20:33;;;;;;;5.20;3.33;;;;;;;19.46;57.39;94510.97;5030431;28;20249;-81
2023/07/27 05:22:59;;;;;;;4.03;2.70;;;;;;;19.64;57.11;94521.03;5031411;28;20175;-82
2023/07/27 05:25:24;;;;;;;4.47;2.53;;;;;;;19.63;57.41;94537.38;5013618;28;20178;-82
2023/07/27 05:27:49;;;;;;;4.25;2.70;;;;;;;19.74;58.02;94531.69;5031439;28;20171;-87
2023/07/27 05:30:15;;;;;;;3.50;2.05;;;;;;;19.95;56.48;94529.69;5031431;28;20160;-88
2023/07/27 05:32:40;;;;;;;5.03;1.92;;;;;;;20.01;56.21;94536.59;5014081;28;20249;-87
2023/07/27 05:35:06;;;;;;;4.03;2.17;;;;;;;19.80;56.08;94511.09;5032107;28;20176;-87
2023/07/27 05:37:34;;;;;;;2.92;2.45;;;;;;;19.78;56.52;94508.69;5031719;28;20619;-87
2023/07/27 05:39:59;;;;;;;8.57;2.83;;;;;;;20.06;55.98;94533.09;5031576;28;20286;-87
2023/07/27 05:42:24;;;;;;;8.10;2.60;;;;;;;20.02;56.25;94527.50;5014036;28;20258;-87
2023/07/27 05:44:50;;;;;;;2.60;1.80;;;;;;;19.95;56.23;94498.44;5031969;28;20247;-87
2023/07/27 05:47:17;;;;;;;3.42;2.00;;;;;;;20.20;55.68;94542.88;5031876;28;20180;-88
2023/07/27 05:49:42;;;;;;;4.07;2.08;;;;;;;20.48;56.34;94557.41;5031836;28;20152;-87
2023/07/27 05:52:07;;;;;;;8.18;2.67;;;;;;;20.48;55.11;94564.66;5031606;28;20171;-87
2023/07/27 05:54:33;;;;;;;8.70;2.30;;;;;;;20.45;55.35;94555.28;5031529;28;20176;-87
2023/07/27 05:56:58;;;;;;;3.65;2.53;;;;;;;20.75;55.04;94561.47;5034264;28;20162;-87
2023/07/27 05:59:24;;;;;;;2.88;1.80;;;;;;;21.41;51.51;94530.28;5035444;28;20152;-87
2023/07/27 06:01:49;;;;;;;2.30;2.10;;;;;;;22.04;50.40;94580.19;5034687;28;20223;-87
2023/07/27 06:04:16;;;;;;;6.70;1.90;;;;;;;22.54;49.15;94568.69;5034490;28;20635;-87
2023/07/27 06:06:44;;;;;;;8.38;1.70;;;;;;;23.01;47.75;94568.75;5033940;28;20663;-88
2023/07/27 06:09:09;;;;;;;13.10;2.05;;;;;;;23.56;46.15;94542.75;5033466;28;20258;-87
2023/07/27 06:11:34;;;;;;;2.80;1.70;;;;;;;24.79;44.39;94569.38;5032361;28;20207;-87
2023/07/27 06:14:00;;;;;;;1.83;1.73;;;;;;;25.27;41.21;94571.41;5030379;28;20625;-87
2023/07/27 06:16:27;;;;;;;10.30;2.67;;;;;;;25.54;41.46;94576.59;5026223;28;20197;-88
2023/07/27 06:18:52;;;;;;;2.45;1.42;;;;;;;25.89;39.43;94577.53;5022594;28;20203;-88
2023/07/27 06:21:17;;;;;;;3.45;1.50;;;;;;;25.98;41.23;94547.88;5020997;28;20271;-90
2023/07/27 06:23:43;;;;;;;4.07;2.17;;;;;;;26.35;39.47;94554.63;5023921;28;20631;-80
2023/07/27 06:26:08;;;;;;;2.80;2.03;;;;;;;26.86;38.24;94578.13;5034759;28;20180;-80
2023/07/27 06:28:35;;;;;;;1.42;1.33;;;;;;;27.27;37.54;94572.19;5026070;28;20165;-81
2023/07/27 06:31:02;;;;;;;4.07;1.42;;;;;;;26.66;35.81;94577.66;5006711;28;20180;-81
2023/07/27 06:33:27;;;;;;;2.70;1.67;;;;;;;26.67;38.05;94562.25;5023420;28;20254;-81
2023/07/27 06:35:52;;;;;;;4.47;1.63;;;;;;;26.92;36.17;94577.66;5024921;28;20666;-81
2023/07/27 06:38:18;;;;;;;14.13;3.03;;;;;;;27.13;37.13;94582.41;5023838;28;20180;-81
2023/07/27 06:40:44;;;;;;;2.25;1.80;;;;;;;27.39;35.00;94586.63;5022645;28;20187;-81
2023/07/27 06:43:09;;;;;;;2.42;1.80;;;;;;;27.40;34.41;94557.69;5024240;28;20259;-82
2023/07/27 06:45:35;;;;;;;4.03;2.50;;;;;;;27.69;33.35;94584.78;5012058;28;20164;-82
2023/07/27 06:48:02;;;;;;;2.13;1.40;;;;;;;27.63;33.56;94575.28;5021635;28;20179;-81
2023/07/27 06:50:28;;;;;;;3.20;1.77;;;;;;;27.50;34.31;94540.31;5009172;28;20175;-81
2023/07/27 06:52:53;;;;;;;2.38;1.40;;;;;;;27.63;35.34;94550.91;5022964;28;20640;-78
2023/07/27 06:55:19;;;;;;;2.72;1.40;;;;;;;27.71;33.37;94570.94;5016494;28;20184;-78
2023/07/27 06:57:44;;;;;;;1.98;1.38;;;;;;;27.71;33.60;94557.41;5018743;28;20295;-77
2023/07/27 07:00:10;;;;;;;3.65;1.83;;;;;;;27.70;34.46;94551.19;5022879;28;20192;-77
2023/07/27 07:02:36;;;;;;;2.70;1.17;;;;;;;27.66;33.64;94544.88;5020246;28;20180;-77
2023/07/27 07:05:02;;;;;;;2.55;1.20;;;;;;;27.78;33.60;94544.16;5019182;28;20169;-77
2023/07/27 07:07:28;;;;;;;2.17;1.98;;;;;;;27.49;33.84;94547.63;5018132;28;20161;-79
2023/07/27 07:09:54;;;;;;;1.90;1.20;;;;;;;27.61;33.81;94544.25;5013234;28;20206;-78
2023/07/27 07:12:21;;;;;;;3.50;1.63;;;;;;;27.66;34.02;94552.19;5022591;28;20171;-83
2023/07/27 07:14:47;;;;;;;5.25;2.10;;;;;;;27.74;33.01;94548.66;5019149;28;20228;-81
2023/07/27 07:17:13;;;;;;;3.83;2.03;;;;;;;27.73;33.51;94558.69;5018575;28;20172;-77
2023/07/27 07:19:38;;;;;;;5.20;1.55;;;;;;;27.78;34.23;94554.97;5021821;28;20555;-78
2023/07/27 07:22:04;;;;;;;3.90;1.38;;;;;;;27.86;32.73;94559.56;5027458;28;20177;-78
2023/07/27 07:24:29;;;;;;;3.60;1.65;;;;;;;27.77;33.49;94535.25;5021209;28;20164;-81
2023/07/27 07:26:55;;;;;;;2.95;1.52;;;;;;;27.52;33.86;94533.44;5022693;28;20215;-81
2023/07/27 07:29:21;;;;;;;5.25;3.47;;;;;;;27.92;33.98;94560.97;5013225;28;20172;-82
2023/07/27 07:31:47;;;;;;;4.85;2.30;;;;;;;27.81;33.22;94511.03;5022756;28;20175;-80
2023/07/27 07:34:13;;;;;;;1.77;1.63;;;;;;;28.07;33.18;94548.78;5020750;28;20183;-80
2023/07/27 07:36:38;;;;;;;6.70;2.85;;;;;;;28.09;33.55;94555.44;5026172;28;20176;-81
2023/07/27 07:39:03;;;;;;;3.17;1.80;;;;;;;27.84;33.00;94542.88;5024287;28;20180;-81
2023/07/27 07:41:29;;;;;;;4.45;1.60;;;;;;;27.79;32.83;94570.88;5027258;28;20690;-78
2023/07/27 07:43:54;;;;;;;3.67;1.67;;;;;;;27.10;33.89;94539.78;5024682;28;20169;-81
2023/07/27 07:46:19;;;;;;;1.63;1.50;;;;;;;27.11;34.62;94542.19;5021320;28;20177;-81
2023/07/27 07:48:45;;;;;;;4.43;1.75;;;;;;;26.97;33.50;94545.09;5024784;28;20165;-81
2023/07/27 07:51:14;;;;;;;4.90;1.85;;;;;;;27.04;34.05;94541.88;5021130;28;20192;-85
2023/07/27 07:53:41;;;;;;;6.32;1.58;;;;;;;27.44;33.77;94553.19;5019161;28;20536;-83
2023/07/27 07:56:14;;;;;;;4.65;1.55;;;;;;;27.81;33.60;94561.66;5023252;28;20259;-80
2023/07/27 07:58:39;;;;;;;9.90;2.45;;;;;;;27.86;32.96;94573.06;5025266;28;20202;-78
2023/07/27 08:01:05;;;;;;;2.25;1.05;;;;;;;27.96;32.65;94566.50;5022959;28;20184;-80
2023/07/27 08:03:30;;;;;;;7.05;1.55;;;;;;;27.65;31.92;94561.41;5022637;28;20168;-80
2023/07/27 08:05:56;;;;;;;1.63;1.10;;;;;;;27.60;32.84;94545.34;5021385;28;20620;-83
2023/07/27 08:08:21;;;;;;;4.78;1.73;;;;;;;27.67;33.63;94538.34;5019408;28;20180;-84
2023/07/27 08:10:47;;;;;;;1.27;1.17;;;;;;;27.95;33.52;94554.88;5029483;28;20182;-83
2023/07/27 08:13:12;;;;;;;4.43;1.45;;;;;;;27.86;32.81;94583.91;5020817;28;20222;-83
2023/07/27 08:15:38;;;;;;;14.48;2.20;;;;;;;27.85;31.92;94568.03;5029063;28;20219;-79
2023/07/27 08:18:03;;;;;;;5.53;1.40;;;;;;;27.84;32.22;94571.84;5032172;28;20246;-82
2023/07/27 08:20:29;;;;;;;3.72;1.50;;;;;;;27.95;33.02;94573.03;5031537;28;20188;-81
2023/07/27 08:22:55;;;;;;;11.05;1.73;;;;;;;27.81;32.90;94551.63;5030749;28;20182;-81
2023/07/27 08:25:21;;;;;;;26.17;3.13;;;;;;;27.94;32.50;94563.31;5031935;28;20176;-82
2023/07/27 08:27:47;;;;;;;7.25;1.55;;;;;;;27.93;32.47;94567.97;5030928;28;20172;-80
2023/07/27 08:30:13;;;;;;;14.13;2.63;;;;;;;27.99;32.75;94541.50;5032158;28;20609;-82
2023/07/27 08:32:40;;;;;;;6.57;1.27;;;;;;;28.43;32.51;94578.03;5031831;28;20185;-81
2023/07/27 08:35:06;;;;;;;10.43;1.70;;;;;;;28.14;32.55;94579.59;5031915;28;20179;-81
2023/07/27 08:37:31;;;;;;;4.85;1.80;;;;;;;28.00;32.80;94564.75;5031745;28;20685;-80
2023/07/27 08:39:58;;;;;;;9.82;2.08;;;;;;;27.81;32.65;94586.00;5031632;28;20200;-80
2023/07/27 08:42:24;;;;;;;5.22;1.60;;;;;;;27.79;33.17;94580.91;5031733;28;20175;-82
2023/07/27 08:44:50;;;;;;;3.85;2.30;;;;;;;27.71;32.71;94570.94;5031701;28;20172;-82
2023/07/27 08:47:15;;;;;;;2.70;1.67;;;;;;;27.79;32.72;94568.19;5031627;28;20186;-80
2023/07/27 08:49:43;;;;;;;8.25;2.33;;;;;;;27.65;33.88;94575.75;5031926;28;20565;-80
2023/07/27 08:52:12;;;;;;;8.43;1.80;;;;;;;27.40;33.00;94555.78;5031671;28;20254;-81
2023/07/27 08:54:37;;;;;;;10.90;1.83;;;;;;;27.16;34.79;94577.13;5022671;28;20603;-79
2023/07/27 08:57:03;;;;;;;3.92;1.55;;;;;;;26.89;34.87;94575.59;5019555;28;20171;-80
2023/07/27 08:59:29;;;;;;;10.73;2.78;;;;;;;26.29;35.48;94556.72;5023652;28;20203;-80
2023/07/27 09:01:54;;;;;;;8.05;1.95;;;;;;;26.47;36.87;94592.59;5029289;28;20610;-80
2023/07/27 09:04:19;;;;;;;5.07;1.65;;;;;;;26.73;37.32;94560.16;5010780;28;20207;-79
2023/07/27 09:06:48;;;;;;;6.72;1.52;;;;;;;26.58;35.34;94574.97;5028348;28;20180;-80
2023/07/27 09:09:25;;;;;;;11.82;1.55;;;;;;;26.57;36.30;94568.75;5028391;28;20207;-80
2023/07/27 09:11:54;;;;;;;9.02;2.00;;;;;;;26.94;36.35;94577.34;5029352;28;20177;-80
2023/07/27 09:14:20;;;;;;;3.60;1.55;;;;;;;26.87;36.63;94560.81;5029366;28;20744;-80
2023/07/27 09:16:47;;;;;;;5.70;1.30;;;;;;;26.59;35.32;94573.84;5029071;28;20180;-80
2023/07/27 09:19:13;;;;;;;4.30;2.00;;;;;;;26.68;36.09;94571.94;5029302;28;20174;-81
2023/07/27 09:21:46;;;;;;;5.68;1.20;;;;;;;27.01;35.27;94581.16;5028919;28;20199;-81
2023/07/27 09:24:12;;;;;;;3.33;1.42;;;;;;;26.51;34.58;94570.03;5029210;28;20164;-80
2023/07/27 09:26:50;;;;;;;3.00;1.20;;;;;;;25.76;36.33;94578.47;5026955;28;20318;-81
2023/07/27 09:29:17;;;;;;;4.63;1.40;;;;;;;25.95;37.44;94581.69;5028581;28;20168;-80
2023/07/27 09:31:43;;;;;;;13.48;2.28;;;;;;;26.07;38.26;94592.66;5013658;28;20255;-81
2023/07/27 09:34:09;;;;;;;12.38;1.90;;;;;;;25.96;37.19;94577.06;5032800;28;20642;-81
2023/07/27 09:36:34;;;;;;;9.30;3.20;;;;;;;26.10;36.63;94589.34;5033171;28;20267;-81
2023/07/27 09:39:00;;;;;;;6.35;1.88;;;;;;;26.03;36.15;94575.53;5031570;28;20697;-80
2023/07/27 09:41:27;;;;;;;5.80;1.98;;;;;;;26.20;37.01;94583.66;5032441;28;20188;-80
2023/07/27 09:43:55;;;;;;;3.03;1.52;;;;;;;26.04;36.03;94562.81;5028333;28;20227;-81
2023/07/27 09:46:22;;;;;;;12.65;2.03;;;;;;;26.14;36.82;94594.91;5025646;28;20639;-81
2023/07/27 09:48:48;;;;;;;5.47;1.83;;;;;;;26.13;37.25;94590.59;5034857;28;20206;-80
2023/07/27 09:51:16;;;;;;;6.65;1.90;;;;;;;26.11;36.62;94596.34;5034714;28;20167;-80
2023/07/27 09:53:43;;;;;;;6.35;2.67;;;;;;;26.13;36.80;94604.09;5030707;28;20178;-81
2023/07/27 09:56:10;;;;;;;3.50;1.83;;;;;;;26.11;36.08;94585.56;5034440;28;20199;-81
2023/07/27 09:58:37;;;;;;;15.00;1.63;;;;;;;26.08;36.67;94591.56;5034681;28;20172;-80
2023/07/27 10:01:02;;;;;;;3.25;1.45;;;;;;;26.03;36.45;94593.63;5034528;28;20244;-80
2023/07/27 10:03:28;;;;;;;21.23;1.90;;;;;;;26.14;37.20;94584.09;5016907;28;20567;-81
2023/07/27 10:05:54;;;;;;;1.63;1.40;;;;;;;26.38;35.88;94602.59;5034425;28;20632;-80
2023/07/27 10:08:20;;;;;;;10.15;2.00;;;;;;;26.48;35.75;94600.38;5034583;28;21799;-81
2023/07/27 10:10:52;;;;;;;3.75;1.88;;;;;;;26.52;36.23;94590.53;5034524;28;20175;-81
2023/07/27 10:13:24;;;;;;;3.40;1.70;;;;;;;26.14;35.29;94587.59;5034822;28;20184;-82
2023/07/27 10:15:51;;;;;;;4.57;1.73;;;;;;;26.07;37.76;94578.38;5034221;28;20220;-81
2023/07/27 10:18:21;;;;;;;9.50;2.97;;;;;;;26.30;37.11;94582.56;5034289;28;20172;-82
2023/07/27 10:20:46;;;;;;;3.33;1.33;;;;;;;26.05;33.95;94549.00;5016515;28;20319;-81
2023/07/27 10:23:18;;;;;;;7.20;1.75;;;;;;;26.20;33.06;94593.66;5034277;28;20646;-81
2023/07/27 10:26:05;;;;;;;3.78;1.35;;;;;;;25.94;34.49;94574.72;5014583;28;20605;-81
2023/07/27 10:28:49;;;;;;;5.28;1.35;;;;;;;25.92;35.29;94583.13;5033021;28;20188;-80
2023/07/27 10:31:15;;;;;;;3.47;1.50;;;;;;;25.89;36.26;94581.03;5021526;28;20256;-80
2023/07/27 10:34:07;;;;;;;5.30;2.53;;;;;;;25.92;37.58;94568.84;5029375;28;20651;-80
2023/07/27 10:36:56;;;;;;;4.00;1.45;;;;;;;25.90;35.63;94579.94;5005720;28;20188;-79
2023/07/27 10:39:29;;;;;;;4.72;1.70;;;;;;;25.97;35.35;94574.06;5033812;28;20178;-80
2023/07/27 10:42:01;;;;;;;2.13;1.25;;;;;;;26.07;36.16;94581.06;5028112;28;20196;-80
2023/07/27 10:44:47;;;;;;;9.73;2.00;;;;;;;25.99;35.17;94576.47;5027857;28;20191;-81
2023/07/27 10:47:14;;;;;;;4.68;1.38;;;;;;;25.88;35.99;94571.34;5026699;28;20187;-79
2023/07/27 10:49:47;;;;;;;2.42;1.45;;;;;;;25.86;36.17;94575.47;5016887;28;20251;-80
2023/07/27 10:52:15;;;;;;;11.05;1.75;;;;;;;25.80;35.88;94569.44;5019137;28;20180;-80
2023/07/27 10:54:41;;;;;;;3.50;1.80;;;;;;;25.74;35.49;94572.59;5028414;28;20180;-79
2023/07/27 10:57:09;;;;;;;3.85;1.40;;;;;;;25.66;36.00;94563.38;5022601;28;20247;-80
2023/07/27 10:59:43;;;;;;;2.70;1.70;;;;;;;25.65;36.85;94561.78;5028069;28;20566;-80
2023/07/27 11:02:22;;;;;;;4.43;1.70;;;;;;;25.47;37.74;94549.31;5025377;28;20184;-78
2023/07/27 11:04:58;;;;;;;6.03;1.70;;;;;;;25.46;36.69;94570.06;5024047;28;20600;-77
2023/07/27 11:07:26;;;;;;;4.68;1.60;;;;;;;25.45;35.53;94551.50;5003374;28;20551;-79
2023/07/27 11:09:51;;;;;;;4.65;1.60;;;;;;;25.01;35.57;94547.03;5033279;28;20623;-79
2023/07/27 11:12:17;;;;;;;3.90;1.70;;;;;;;24.82;37.59;94539.16;5032795;28;20228;-79
2023/07/27 11:14:42;;;;;;;4.90;1.85;;;;;;;25.16;38.41;94546.66;5030378;28;20261;-79
2023/07/27 11:17:11;;;;;;;2.60;1.70;;;;;;;25.44;37.46;94549.91;5033367;28;20270;-79
2023/07/27 11:19:37;;;;;;;3.65;2.15;;;;;;;25.52;37.44;94519.50;5033393;28;20564;-82
2023/07/27 11:22:03;;;;;;;3.33;1.80;;;;;;;25.57;35.69;94522.06;5031410;28;20203;-81
2023/07/27 11:24:30;;;;;;;1.55;1.40;;;;;;;25.69;35.81;94530.38;5031746;28;20237;-82
2023/07/27 11:26:55;;;;;;;7.97;1.60;;;;;;;25.48;35.42;94524.75;5031047;28;20684;-80
2023/07/27 11:29:20;;;;;;;2.58;1.77;;;;;;;25.60;37.28;94543.03;5026094;28;20731;-79
2023/07/27 11:31:58;;;;;;;2.92;1.70;;;;;;;25.74;37.01;94541.03;5010200;28;20655;-80
2023/07/27 11:34:25;;;;;;;8.43;1.65;;;;;;;25.74;36.46;94532.13;5028650;28;20179;-80